Dawson Creek Airport
CYDQ : rendu visible

Aérodrome :











RETROUVEZ-NOUS SUR...

 
LOGIN :

S'inscrire | Disclaimer

   EN    FR    IT 

 









Légende :    VFR   VFR Marginal   IFR   IFR Intensif   IFR Très Intensif
Visi : 
Plafond : 
>= 8 km
>= 3000ft
5 à 8 km
1000 à 3000 ft
1500m à 5 km
500 à 1000 ft
800 à 1500m
200 à 500 ft
< 800m
< 200 ft
Symboles :   Orages  Brouillard  Fortes neiges  Fortes précipitations  Vent > 20 kt






- Altitude de l'aérodrome : 2148 ft
- Code IATA : YDQ


CYDQ - Dawson Creek

DERNIER METAR :
  • 121129Z AUTO 23003KT 3/8SM FZFG BKN001 BKN085 M06/M06 A2982 RMK SLP137

METARs EXPIRÉS :
  • 121126Z AUTO 22003KT 1/2SM FZFG SCT001 BKN085 M06/M06 A2982 RMK SLP137
  • 121100Z AUTO 00000KT 9SM BKN080 M05/M05 A2983 RMK SLP137
  • 121044Z AUTO 00000KT 9SM BKN080 M05/M06 A2983 RMK SLP139
  • 121037Z AUTO 00000KT 2 1/4SM BR BKN080 M05/M05 A2983 RMK SLP140
  • 121023Z AUTO 05003KT 1/2SM FZFG BKN075 M03/M04 A2983 RMK SLP139
  • 121000Z AUTO 00000KT 9SM FEW050 BKN075 BKN093 M01/M02 A2983 RMK SLP138
  • 120927Z AUTO 16002KT 9SM FEW038 OVC050 M01/M02 A2984 RMK SLP144
  • 120900Z AUTO 16005KT 9SM -SN FEW040 OVC050 M01/M01 A2985 RMK SLP147
  • 120846Z AUTO 16004KT 9SM -SN SCT014 SCT040 OVC050 M01/M02 A2985 RMK SLP149

Prévision TAF périmée.



MET'MAP, la Météo Aéronautique d'un coup d'oeil ! - Copyright ORBIFLY Décembre 2007 - Disclaimer

ORBIFLY MET'MAP TEAM :

Programmation & Développement : Alexandra Zaïnal
Conception & Développement : Baudouin d'Aumeries
Co-Programmation & Développement : Marc-Olivier Méhu
Soutien technique & logistique : Manuel Goepfert

Contact : metmap@orbifly.com




SOURCES & CREDITS :

   NOAA       Earth
Advisory